163-й км МНП

Карта отелей и гостиниц, располагающихся рядом с аэропортом 163-й км МНП :

163-й км МНП Республика Коми 65° 4' 39.7812" N, 57° 13' 56.1" E
163-й км МНП Республика Коми 65° 4' 39.7812" N, 57° 13' 56.1" E
Код аэродрома ИКАО
UUPM
Код аэродрома RU
УУПМ
Координаты
N65.07772° E057.23225°
Превышение над уровнем моря
65
Основная полоса
10/28
Курс магнитный
099,6/279,6
Длина основной ВПП
30
Ширина основной ВПП
25
Покрытие основной ВПП
Твёрдое (бетон)
Освещение ВПП
Нет
Тип: 
Вертодром
Класс аэродрома: 
Принадлежность: 
ГА
Статус: 
Действующий
Сайт: 
E-mail аэродрома: 
Страна: 
Россия
Регион: 
Республика Коми
Город: 
Дополнительная информация: 
Оператор: Нефте-перекачивающая станция (НПС) "Печора".

Найти трансфер

С помощью этой формы Вы можете найти трансфер из аэропорта 163-й км МНП в город, аэропорт или вокзал:

Карта места

Javascript is required to view this map.

Погода в аэропортах:

Авиационная погода в Елизово

Регион: 
Погода METAR: 
UHPP 130900Z 31001MPS 9000 -SHSNRA FEW007 BKN040CB 00/00 Q1015 R16R/290155 NOSIG RMK QFE758/1011
Время наблюдения
2021-04-13T09:00:00Z
Температура C
0.0
Точка росы
0.0
Направление ветра
310
Скорость ветра (узлы)
2
Метео видимость
5.59
Явления погоды
-SHSN -SHRA
Условия полета
VFR
Аэропорт подробнее: 

Авиационная погода в Хомутово

Регион: 
Погода METAR: 
UHSS 130900Z 17004MPS 9000 -SHRA SCT008 BKN027CB 07/06 Q0998 R19/250255 NOSIG RMK MT OBSC QFE747/0997
Время наблюдения
2021-04-13T09:00:00Z
Температура C
7.0
Точка росы
6.0
Направление ветра
170
Скорость ветра (узлы)
8
Метео видимость
5.59
Явления погоды
-SHRA
Условия полета
MVFR
Аэропорт подробнее: 

Авиационная погода в Ужгороде

Регион: 
Погода METAR: 
UKLU 130900Z 32007MPS 9999 -RA OVC040 10/04 Q1017 R10/290160 NOSIG
Время наблюдения
2021-04-13T09:00:00Z
Температура C
10.0
Точка росы
4.0
Направление ветра
320
Скорость ветра (узлы)
14
Метео видимость
6.21
Явления погоды
-RA
Условия полета
VFR
Аэропорт подробнее: 

Авиационная погода в Полярном

Регион: 
Погода METAR: 
UERP 130900Z 18003G08MPS 2300 -SHSN BKN014CB OVC100 M02/M04 Q0995 R17/492040 NOSIG RMK QFE702
Время наблюдения
2021-04-13T09:00:00Z
Температура C
-2.0
Точка росы
-4.0
Направление ветра
180
Скорость ветра (узлы)
6
Метео видимость
1.43
Явления погоды
-SHSN
Условия полета
IFR
Аэропорт подробнее: